Time;durP1;ratioP1;P1;durP2;ratioP2;P2;SDS_P1;SDS_P2;PMS_P1;PMS_P2;Temp;Humidity;BMP_temperature;BMP_pressure;BME280_temperature;BME280_humidity;BME280_pressure;Samples;Min_cycle;Max_cycle;Signal;HPM_P1;HPM_P2
2023/10/19 00:00:20;;;;;;;0.40;0.40;;;;;;;7.95;75.54;96107.91;5092493;28;20115;-73
2023/10/19 00:02:51;;;;;;;;;;;;;;;7.96;75.37;96098.91;5078772;28;20562;-73
2023/10/19 00:05:20;;;;;;;0.40;0.40;;;;;;;7.95;76.21;96094.59;5100668;28;19928;-73
2023/10/19 00:07:47;;;;;;;0.22;0.22;;;;;;;7.91;77.57;96097.91;5094104;28;20046;-73
2023/10/19 00:10:16;;;;;;;0.38;0.38;;;;;;;7.82;78.57;96099.19;5076577;28;20064;-73
2023/10/19 00:12:43;;;;;;;0.40;0.40;;;;;;;7.67;78.72;96092.34;5086038;28;20036;-73
2023/10/19 00:15:14;;;;;;;0.50;0.50;;;;;;;7.63;79.79;96087.66;5095716;28;20044;-73
2023/10/19 00:17:44;;;;;;;0.32;0.32;;;;;;;7.59;80.34;96091.75;5099441;28;20044;-73
2023/10/19 00:20:37;;;;;;;0.50;0.50;;;;;;;7.61;80.09;96095.03;5092983;28;20100;-73
2023/10/19 00:23:05;;;;;;;0.50;0.50;;;;;;;7.61;79.91;96079.91;5087993;28;20042;-72
2023/10/19 00:25:34;;;;;;;0.40;0.40;;;;;;;7.59;81.16;96060.72;5087732;28;20120;-72
2023/10/19 00:28:04;;;;;;;0.40;0.40;;;;;;;7.60;80.16;96056.22;5089720;28;20040;-72
2023/10/19 00:30:36;;;;;;;0.40;0.40;;;;;;;7.58;80.00;96051.13;5072793;28;20059;-72
2023/10/19 00:33:05;;;;;;;0.40;0.32;;;;;;;7.63;79.60;96039.88;5091392;28;20054;-72
2023/10/19 00:35:35;;;;;;;0.38;0.38;;;;;;;7.64;80.41;96044.97;5072711;28;20048;-72
2023/10/19 00:40:53;;;;;;;0.50;0.50;;;;;;;7.54;80.61;96041.97;5028338;28;20064;-72
2023/10/19 00:43:32;;;;;;;0.40;0.40;;;;;;;7.56;80.72;96033.81;5090635;28;20040;-73
2023/10/19 00:46:02;;;;;;;;;;;;;;;7.52;81.64;96030.75;5073695;28;20048;-72
2023/10/19 00:48:32;;;;;;;0.40;0.40;;;;;;;7.54;81.68;96017.28;5091915;28;20595;-72
2023/10/19 00:51:09;;;;;;;0.35;0.35;;;;;;;7.56;81.84;96017.88;5072984;28;20048;-72
2023/10/19 00:53:39;;;;;;;0.50;0.50;;;;;;;7.58;81.12;96008.66;5092320;28;20040;-72
2023/10/19 00:56:09;;;;;;;0.30;0.30;;;;;;;7.52;81.57;95996.25;5090561;28;20044;-72
2023/10/19 00:58:40;;;;;;;0.50;0.50;;;;;;;7.56;81.32;95997.44;5089680;28;20119;-72
2023/10/19 01:01:08;;;;;;;0.40;0.40;;;;;;;7.56;81.99;95991.34;5090477;28;20089;-72
2023/10/19 01:03:38;;;;;;;0.55;0.55;;;;;;;7.55;82.17;95989.69;5091732;28;20041;-73
2023/10/19 01:06:09;;;;;;;0.50;0.50;;;;;;;7.53;82.33;95991.75;5066682;28;20542;-73
2023/10/19 01:08:43;;;;;;;0.32;0.32;;;;;;;7.51;82.75;95988.50;5089315;28;20059;-73
2023/10/19 01:11:15;;;;;;;0.47;0.47;;;;;;;7.52;82.79;95977.66;5071615;28;20040;-74
2023/10/19 01:13:46;;;;;;;0.30;0.30;;;;;;;7.48;82.90;95979.09;5091354;28;20115;-73
2023/10/19 01:16:21;;;;;;;0.30;0.30;;;;;;;7.41;84.16;95980.19;5067915;28;20142;-73
2023/10/19 01:18:53;;;;;;;0.52;0.52;;;;;;;7.40;84.50;95978.56;5072632;28;20453;-73
2023/10/19 01:21:27;;;;;;;0.40;0.40;;;;;;;7.38;84.84;95982.25;5068000;28;20052;-72
2023/10/19 01:23:56;;;;;;;0.50;0.50;;;;;;;7.35;84.57;95966.78;5091006;28;20040;-73
2023/10/19 01:26:27;;;;;;;0.50;0.50;;;;;;;7.30;84.86;95965.78;5081190;28;20040;-73
2023/10/19 01:29:00;;;;;;;0.47;0.47;;;;;;;7.28;85.17;95957.22;5105410;28;20047;-73
2023/10/19 01:31:37;;;;;;;0.50;0.50;;;;;;;7.24;85.57;95959.50;5071310;28;20082;-73
2023/10/19 01:34:06;;;;;;;0.47;0.47;;;;;;;7.26;85.45;95953.97;5077582;28;20076;-72
2023/10/19 01:36:41;;;;;;;0.40;0.40;;;;;;;7.21;86.08;95951.13;5092005;28;20052;-72
2023/10/19 01:39:11;;;;;;;0.40;0.40;;;;;;;7.18;86.14;95943.59;5079182;28;20117;-73
2023/10/19 01:41:41;;;;;;;0.60;0.60;;;;;;;7.09;87.03;95927.13;5068864;28;20067;-72
2023/10/19 01:44:07;;;;;;;0.50;0.50;;;;;;;7.09;87.04;95937.75;5081121;28;20151;-72
2023/10/19 01:46:36;;;;;;;0.60;0.60;;;;;;;7.06;86.98;95940.03;5084193;28;20036;-73
2023/10/19 01:49:04;;;;;;;0.40;0.40;;;;;;;7.05;86.60;95936.56;5093570;28;20444;-73
2023/10/19 01:51:38;;;;;;;0.60;0.60;;;;;;;7.08;86.83;95932.66;5085191;28;20146;-73
2023/10/19 01:54:05;;;;;;;0.60;0.60;;;;;;;7.02;86.99;95928.22;5075802;28;20051;-72
2023/10/19 01:56:35;;;;;;;0.90;0.90;;;;;;;7.03;87.16;95929.84;5086934;28;20439;-73
2023/10/19 01:59:03;;;;;;;0.40;0.40;;;;;;;7.09;86.89;95918.34;5077245;28;20047;-73
2023/10/19 02:01:32;;;;;;;0.50;0.50;;;;;;;7.06;87.48;95921.47;5078889;28;20135;-72
2023/10/19 02:04:05;;;;;;;0.40;0.40;;;;;;;7.08;86.97;95922.03;5092925;28;20059;-72
2023/10/19 02:06:36;;;;;;;0.25;0.25;;;;;;;7.05;87.17;95915.34;5070795;28;20089;-72
2023/10/19 02:09:09;;;;;;;0.40;0.40;;;;;;;7.05;87.20;95919.84;5089882;28;20064;-72
2023/10/19 02:11:41;;;;;;;0.40;0.40;;;;;;;7.04;88.19;95913.72;5094140;28;20040;-72
2023/10/19 02:14:13;;;;;;;0.30;0.30;;;;;;;6.98;88.50;95907.41;5078625;28;20047;-72
2023/10/19 02:16:41;;;;;;;0.38;0.38;;;;;;;6.94;88.84;95923.97;5077930;28;20038;-72
2023/10/19 02:19:09;;;;;;;0.50;0.50;;;;;;;6.91;88.77;95911.94;5090411;28;20628;-72
2023/10/19 02:21:39;;;;;;;0.38;0.38;;;;;;;6.88;89.56;95908.91;5079011;28;20067;-72
2023/10/19 02:24:08;;;;;;;0.30;0.30;;;;;;;6.87;89.58;95923.19;5071020;28;20078;-72
2023/10/19 02:26:38;;;;;;;0.45;0.45;;;;;;;6.87;89.94;95913.38;5095521;28;20415;-72
2023/10/19 02:29:09;;;;;;;0.40;0.40;;;;;;;6.79;89.81;95887.13;5098594;28;20047;-72
2023/10/19 02:31:37;;;;;;;0.43;0.43;;;;;;;6.78;90.06;95904.06;5095458;28;20040;-72
2023/10/19 02:34:07;;;;;;;0.45;0.45;;;;;;;6.76;89.58;95900.81;5092884;28;20148;-72
2023/10/19 02:36:37;;;;;;;0.50;0.50;;;;;;;6.76;89.05;95890.19;5075370;28;20048;-72
2023/10/19 02:39:08;;;;;;;0.50;0.50;;;;;;;6.79;89.18;95889.78;5093300;28;20035;-73
2023/10/19 02:41:38;;;;;;;0.40;0.40;;;;;;;6.80;89.32;95880.00;5073770;28;20067;-73
2023/10/19 02:44:09;;;;;;;0.50;0.50;;;;;;;6.82;89.22;95881.41;5075944;28;20036;-73
2023/10/19 02:46:38;;;;;;;0.60;0.60;;;;;;;6.82;89.05;95862.03;5093418;28;20411;-73
2023/10/19 02:49:10;;;;;;;0.55;0.40;;;;;;;6.85;89.02;95877.53;5074853;28;20097;-74
2023/10/19 02:51:37;;;;;;;0.50;0.50;;;;;;;6.84;88.61;95871.41;5094393;28;20051;-73
2023/10/19 02:54:07;;;;;;;0.47;0.47;;;;;;;6.85;88.39;95869.56;5090619;28;20119;-74
2023/10/19 02:56:35;;;;;;;0.32;0.32;;;;;;;6.86;88.80;95852.59;5092612;28;20491;-74
2023/10/19 02:59:04;;;;;;;0.40;0.40;;;;;;;6.87;87.84;95855.06;5094191;28;20055;-74
2023/10/19 03:01:33;;;;;;;0.40;0.40;;;;;;;6.85;88.25;95846.50;5075792;28;20460;-74
2023/10/19 03:04:04;;;;;;;0.30;0.30;;;;;;;6.82;88.21;95838.19;5093842;28;20040;-74
2023/10/19 03:06:32;;;;;;;0.45;0.45;;;;;;;6.78;88.25;95848.38;5075628;28;20078;-73
2023/10/19 03:09:12;;;;;;;0.57;0.57;;;;;;;6.81;88.00;95850.63;5093494;28;20071;-74
2023/10/19 03:11:41;;;;;;;0.30;0.30;;;;;;;6.81;87.98;95852.47;5072476;28;20048;-73
2023/10/19 03:14:11;;;;;;;1.30;1.30;;;;;;;6.76;88.24;95869.00;5074738;28;20444;-72
2023/10/19 03:16:41;;;;;;;0.38;0.38;;;;;;;6.71;88.95;95854.75;5095141;28;20123;-73
2023/10/19 03:19:08;;;;;;;0.50;0.50;;;;;;;6.69;88.85;95860.28;5090407;28;20467;-73
2023/10/19 03:21:42;;;;;;;0.50;0.50;;;;;;;6.71;88.46;95855.56;5070657;28;20043;-73
2023/10/19 03:24:12;;;;;;;0.22;0.22;;;;;;;6.70;88.04;95856.59;5091756;28;20078;-73
2023/10/19 03:26:48;;;;;;;0.50;0.50;;;;;;;6.71;88.17;95849.47;5077842;28;20135;-73
2023/10/19 03:29:25;;;;;;;0.50;0.50;;;;;;;6.70;88.16;95851.31;5093689;28;20048;-74
2023/10/19 03:31:53;;;;;;;0.65;0.65;;;;;;;6.72;87.68;95857.22;5089117;28;20509;-74
2023/10/19 03:34:23;;;;;;;0.63;0.63;;;;;;;6.72;88.11;95851.91;5086770;28;20392;-74
2023/10/19 03:36:51;;;;;;;0.40;0.40;;;;;;;6.71;87.50;95852.94;5074493;28;20105;-73
2023/10/19 03:39:21;;;;;;;0.32;0.32;;;;;;;6.68;88.23;95856.00;5072866;28;20041;-74
2023/10/19 03:41:51;;;;;;;0.40;0.40;;;;;;;6.68;87.40;95842.75;5068175;28;20047;-74
2023/10/19 03:44:24;;;;;;;0.50;0.50;;;;;;;6.69;87.16;95849.66;5093488;28;20036;-74
2023/10/19 03:46:55;;;;;;;0.60;0.60;;;;;;;6.71;86.95;95838.84;5075091;28;20059;-73
2023/10/19 03:49:26;;;;;;;0.35;0.35;;;;;;;6.71;86.83;95838.84;5069425;28;20055;-74
2023/10/19 03:52:02;;;;;;;0.40;0.40;;;;;;;6.69;86.90;95830.31;5064304;28;20053;-74
2023/10/19 03:54:32;;;;;;;0.55;0.55;;;;;;;6.74;86.87;95825.19;5093518;28;20034;-74
2023/10/19 03:57:06;;;;;;;0.60;0.60;;;;;;;6.70;86.84;95831.94;5074583;28;20062;-74
2023/10/19 03:59:35;;;;;;;0.60;0.60;;;;;;;6.71;86.95;95836.22;5072345;28;20177;-74
2023/10/19 04:02:13;;;;;;;0.57;0.57;;;;;;;6.71;86.65;95844.16;5074405;28;20112;-74
2023/10/19 04:04:43;;;;;;;0.40;0.40;;;;;;;6.69;86.40;95841.72;5093180;28;20092;-74
2023/10/19 04:07:18;;;;;;;1.02;1.02;;;;;;;6.71;86.24;95829.06;5091255;28;20793;-74
2023/10/19 04:09:59;;;;;;;0.40;0.40;;;;;;;6.68;86.55;95836.63;5090687;28;20499;-74
2023/10/19 04:12:29;;;;;;;0.50;0.50;;;;;;;6.64;86.81;95826.44;5090333;28;20050;-74
2023/10/19 04:15:09;;;;;;;0.50;0.50;;;;;;;6.64;86.85;95818.50;5090945;28;20509;-73
2023/10/19 04:17:38;;;;;;;0.40;0.40;;;;;;;6.63;87.03;95824.03;5091036;28;20044;-73
2023/10/19 04:20:20;;;;;;;0.95;0.95;;;;;;;6.59;87.43;95820.16;5090484;28;20395;-73
2023/10/19 04:22:50;;;;;;;0.30;0.30;;;;;;;6.59;86.99;95814.88;5089322;28;20066;-74
2023/10/19 04:25:20;;;;;;;0.43;0.43;;;;;;;6.60;87.19;95816.50;5091122;28;20048;-74
2023/10/19 04:27:48;;;;;;;0.52;0.52;;;;;;;6.56;87.22;95799.38;5086569;28;20115;-73
2023/10/19 04:30:21;;;;;;;0.52;0.52;;;;;;;6.55;88.19;95790.63;5089452;28;20036;-73
2023/10/19 04:32:50;;;;;;;;;;;;;;;6.54;87.92;95802.25;5088215;28;20040;-73
2023/10/19 04:35:22;;;;;;;0.50;0.50;;;;;;;6.53;87.97;95791.88;5089713;28;19931;-73
2023/10/19 04:37:50;;;;;;;0.60;0.60;;;;;;;6.50;88.57;95798.41;5090174;28;20074;-73
2023/10/19 04:40:18;;;;;;;0.30;0.30;;;;;;;6.49;88.59;95806.56;5089838;28;20051;-74
2023/10/19 04:42:46;;;;;;;0.40;0.40;;;;;;;6.49;88.75;95788.84;5090574;28;20040;-73
2023/10/19 04:45:14;;;;;;;0.60;0.60;;;;;;;6.48;89.16;95775.81;5089229;28;20073;-75
2023/10/19 04:47:43;;;;;;;0.40;0.40;;;;;;;6.46;89.40;95788.44;5090735;28;20071;-74
2023/10/19 04:50:11;;;;;;;0.50;0.50;;;;;;;6.45;90.01;95784.16;5090664;28;20036;-73
2023/10/19 04:52:39;;;;;;;0.47;0.47;;;;;;;6.44;89.65;95771.94;5090808;28;20514;-73
2023/10/19 04:55:08;;;;;;;0.75;0.75;;;;;;;6.45;90.22;95774.38;5090903;28;20746;-73
2023/10/19 04:57:36;;;;;;;0.20;0.20;;;;;;;6.46;90.02;95777.84;5090863;28;20039;-73
2023/10/19 05:00:04;;;;;;;0.50;0.50;;;;;;;6.48;89.76;95775.81;5088358;28;20050;-73
2023/10/19 05:02:32;;;;;;;0.50;0.50;;;;;;;6.46;89.50;95773.34;5089537;28;20046;-73
2023/10/19 05:05:01;;;;;;;0.35;0.35;;;;;;;6.47;89.30;95769.69;5090110;28;20052;-74
2023/10/19 05:07:28;;;;;;;0.50;0.50;;;;;;;6.47;89.56;95753.78;5088303;28;20074;-73
2023/10/19 05:09:59;;;;;;;0.50;0.50;;;;;;;6.47;88.76;95767.03;5090299;28;20172;-74
2023/10/19 05:12:26;;;;;;;0.40;0.40;;;;;;;6.50;89.34;95779.88;5088777;28;20048;-73
2023/10/19 05:14:55;;;;;;;0.50;0.50;;;;;;;6.50;89.13;95769.28;5090216;28;20129;-73
2023/10/19 05:17:23;;;;;;;0.50;0.50;;;;;;;6.51;88.78;95772.72;5089922;28;20048;-73
2023/10/19 05:19:51;;;;;;;0.60;0.60;;;;;;;6.53;88.59;95765.38;5090251;28;20125;-74
2023/10/19 05:22:21;;;;;;;0.50;0.50;;;;;;;6.53;88.68;95768.03;5089756;28;20067;-74
2023/10/19 05:24:49;;;;;;;0.40;0.40;;;;;;;6.57;88.79;95769.22;5090472;28;20063;-74
2023/10/19 05:27:17;;;;;;;0.30;0.30;;;;;;;6.57;88.49;95762.06;5090522;28;20044;-74
2023/10/19 05:29:45;;;;;;;0.65;0.65;;;;;;;6.60;88.60;95752.88;5090028;28;20465;-74
2023/10/19 05:32:13;;;;;;;0.52;0.52;;;;;;;6.63;87.93;95747.16;5071708;28;20483;-74
2023/10/19 05:34:41;;;;;;;0.43;0.43;;;;;;;6.63;87.75;95753.28;5070883;28;20415;-74
2023/10/19 05:37:10;;;;;;;0.50;0.50;;;;;;;6.64;87.53;95764.69;5083286;28;20055;-74
2023/10/19 05:39:39;;;;;;;0.55;0.55;;;;;;;6.62;87.56;95769.41;5089126;28;20050;-74
2023/10/19 05:42:07;;;;;;;0.65;0.65;;;;;;;6.58;88.07;95769.00;5089200;28;20044;-74
2023/10/19 05:44:34;;;;;;;0.65;0.60;;;;;;;6.61;87.87;95762.47;5089226;28;20044;-74
2023/10/19 05:47:02;;;;;;;0.60;0.60;;;;;;;6.63;87.19;95776.31;5089188;28;20044;-74
2023/10/19 05:49:30;;;;;;;0.43;0.43;;;;;;;6.62;87.30;95772.03;5089025;28;20044;-73
2023/10/19 05:51:58;;;;;;;0.50;0.50;;;;;;;6.62;87.94;95790.59;5090797;28;20040;-73
2023/10/19 05:54:26;;;;;;;0.35;0.35;;;;;;;6.60;87.81;95787.34;5090666;28;20044;-73
2023/10/19 05:56:57;;;;;;;0.90;0.90;;;;;;;6.57;88.09;95790.41;5090463;28;20435;-73
2023/10/19 05:59:29;;;;;;;0.30;0.30;;;;;;;6.56;88.28;95799.38;5090253;28;20040;-74
2023/10/19 06:01:56;;;;;;;0.63;0.63;;;;;;;6.56;88.58;95789.59;5089228;28;20044;-74
2023/10/19 06:04:24;;;;;;;0.40;0.40;;;;;;;6.56;88.88;95796.75;5089603;28;20074;-74
2023/10/19 06:06:52;;;;;;;0.40;0.40;;;;;;;6.58;89.31;95795.50;5088922;28;20089;-74
2023/10/19 06:09:20;;;;;;;0.40;0.40;;;;;;;6.53;89.30;95797.19;5070583;28;20105;-74
2023/10/19 06:11:49;;;;;;;0.40;0.40;;;;;;;6.55;89.56;95795.09;5089938;28;20102;-74
2023/10/19 06:14:19;;;;;;;0.45;0.45;;;;;;;6.56;89.39;95802.03;5089323;28;20483;-74
2023/10/19 06:16:47;;;;;;;0.80;0.80;;;;;;;6.55;89.47;95809.19;5089137;28;20430;-74
2023/10/19 06:19:16;;;;;;;0.45;0.45;;;;;;;6.57;89.05;95801.81;5089140;28;20048;-74
2023/10/19 06:21:44;;;;;;;0.32;0.32;;;;;;;6.59;89.00;95804.28;5090150;28;20085;-74
2023/10/19 06:24:14;;;;;;;0.55;0.55;;;;;;;6.62;89.30;95814.44;5088520;28;20513;-74
2023/10/19 06:26:43;;;;;;;0.40;0.40;;;;;;;6.63;88.51;95806.28;5088788;28;20755;-75
2023/10/19 06:29:11;;;;;;;0.60;0.60;;;;;;;6.67;89.28;95822.56;5089480;28;20055;-75
2023/10/19 06:31:40;;;;;;;0.75;0.75;;;;;;;6.69;89.31;95809.09;5091336;28;20127;-74
2023/10/19 06:34:08;;;;;;;0.50;0.50;;;;;;;6.72;89.37;95820.09;5090954;28;20135;-75
2023/10/19 06:36:37;;;;;;;0.52;0.52;;;;;;;6.75;89.14;95813.56;5071468;28;20090;-74
2023/10/19 06:39:06;;;;;;;0.32;0.32;;;;;;;6.73;89.12;95811.13;5089374;28;20048;-75
2023/10/19 06:41:34;;;;;;;0.50;0.50;;;;;;;6.70;89.09;95822.13;5089358;28;20519;-75
2023/10/19 06:44:02;;;;;;;0.68;0.68;;;;;;;6.72;89.07;95817.44;5089415;28;20044;-75
2023/10/19 06:46:30;;;;;;;0.50;0.50;;;;;;;6.73;89.17;95824.38;5088387;28;20109;-75
2023/10/19 06:49:00;;;;;;;0.63;0.63;;;;;;;6.76;88.83;95820.47;5088935;28;20052;-74
2023/10/19 06:51:29;;;;;;;0.50;0.50;;;;;;;6.76;89.54;95826.56;5088881;28;20040;-74
2023/10/19 06:53:57;;;;;;;0.30;0.30;;;;;;;6.80;89.09;95819.81;5088879;28;20190;-74
2023/10/19 06:56:26;;;;;;;0.57;0.57;;;;;;;6.78;88.82;95808.63;5089043;28;20580;-74
2023/10/19 06:58:53;;;;;;;0.50;0.50;;;;;;;6.80;89.11;95814.53;5092625;28;20368;-74
2023/10/19 07:01:25;;;;;;;0.45;0.45;;;;;;;6.80;89.04;95811.88;5092206;28;20067;-74
2023/10/19 07:03:53;;;;;;;0.40;0.40;;;;;;;6.85;88.92;95819.19;5092435;28;20040;-74
2023/10/19 07:06:23;;;;;;;0.50;0.50;;;;;;;6.84;89.37;95820.22;5091937;28;20111;-74
2023/10/19 07:08:50;;;;;;;0.40;0.40;;;;;;;6.86;89.29;95816.31;5092302;28;20491;-74
2023/10/19 07:11:18;;;;;;;0.40;0.40;;;;;;;6.86;88.82;95803.03;5092233;28;20046;-74
2023/10/19 07:13:45;;;;;;;0.45;0.45;;;;;;;6.91;88.69;95800.56;5093158;28;20517;-74
2023/10/19 07:16:14;;;;;;;0.85;0.50;;;;;;;6.90;89.02;95796.28;5092510;28;20036;-74
2023/10/19 07:18:41;;;;;;;0.40;0.40;;;;;;;6.92;88.77;95794.25;5091816;28;20050;-74
2023/10/19 07:21:11;;;;;;;0.50;0.50;;;;;;;6.94;88.70;95778.94;5091791;28;20048;-74
2023/10/19 07:23:41;;;;;;;0.50;0.50;;;;;;;6.97;88.60;95778.47;5090404;28;20576;-74
2023/10/19 07:26:08;;;;;;;0.35;0.35;;;;;;;7.02;88.54;95772.53;5091758;28;20066;-74
2023/10/19 07:28:37;;;;;;;0.40;0.40;;;;;;;7.06;88.56;95773.72;5092159;28;20039;-75
2023/10/19 07:31:10;;;;;;;0.50;0.50;;;;;;;7.10;88.23;95777.56;5098387;28;20047;-74
2023/10/19 07:33:45;;;;;;;0.50;0.50;;;;;;;7.16;87.65;95787.31;5096510;28;20044;-75
2023/10/19 07:36:14;;;;;;;0.30;0.30;;;;;;;7.18;87.77;95787.88;5100508;28;20054;-74
2023/10/19 07:38:45;;;;;;;0.40;0.40;;;;;;;7.22;88.08;95783.78;5080065;28;20048;-75
2023/10/19 07:41:13;;;;;;;0.40;0.40;;;;;;;7.25;88.19;95793.16;5096484;28;20403;-75
2023/10/19 07:43:40;;;;;;;0.40;0.40;;;;;;;7.28;87.91;95790.03;5092306;28;20628;-75
2023/10/19 07:46:08;;;;;;;0.30;0.30;;;;;;;7.33;87.94;95800.81;5089539;28;20086;-75
2023/10/19 07:48:36;;;;;;;0.52;0.52;;;;;;;7.33;88.34;95783.06;5090845;28;20089;-74
2023/10/19 07:51:04;;;;;;;0.50;0.50;;;;;;;7.38;87.80;95783.19;5091548;28;20126;-74
2023/10/19 07:53:32;;;;;;;0.40;0.40;;;;;;;7.41;87.98;95774.00;5093001;28;20052;-75
2023/10/19 07:56:01;;;;;;;0.40;0.40;;;;;;;7.44;87.80;95776.22;5091845;28;20036;-75
2023/10/19 07:58:28;;;;;;;0.73;0.73;;;;;;;7.45;87.73;95783.16;5092814;28;20036;-74
2023/10/19 08:00:56;;;;;;;0.40;0.40;;;;;;;7.50;87.88;95785.13;5091312;28;20131;-74
2023/10/19 08:03:25;;;;;;;0.57;0.57;;;;;;;7.53;87.86;95779.41;5092082;28;20119;-74
2023/10/19 08:05:52;;;;;;;0.35;0.35;;;;;;;7.57;87.29;95780.59;5091228;28;20043;-74
2023/10/19 08:08:20;;;;;;;0.40;0.40;;;;;;;7.57;87.12;95776.09;5091559;28;20107;-74
2023/10/19 08:10:48;;;;;;;0.40;0.40;;;;;;;7.61;87.21;95774.59;5091390;28;20051;-74
2023/10/19 08:13:17;;;;;;;0.40;0.40;;;;;;;7.65;86.96;95782.94;5097110;28;20040;-74
2023/10/19 08:15:45;;;;;;;0.40;0.40;;;;;;;7.64;86.80;95784.78;5103073;28;20412;-74
2023/10/19 08:18:14;;;;;;;0.40;0.40;;;;;;;7.63;87.65;95777.84;5104292;28;20352;-74
2023/10/19 08:20:45;;;;;;;0.40;0.40;;;;;;;7.67;86.94;95776.38;5103548;28;20051;-74
2023/10/19 08:23:14;;;;;;;0.50;0.50;;;;;;;7.68;87.18;95777.97;5100311;28;20116;-74
2023/10/19 08:25:44;;;;;;;0.60;0.60;;;;;;;7.71;87.30;95782.03;5103014;28;20626;-74
2023/10/19 08:28:25;;;;;;;0.50;0.50;;;;;;;7.74;86.95;95786.91;5099768;28;20101;-74
2023/10/19 08:31:00;;;;;;;0.50;0.50;;;;;;;7.77;86.91;95785.69;5096297;28;20059;-74
2023/10/19 08:33:29;;;;;;;0.43;0.43;;;;;;;7.80;86.74;95782.56;5094840;28;20043;-74
2023/10/19 08:35:59;;;;;;;0.50;0.50;;;;;;;7.83;87.00;95777.63;5094975;28;20110;-74
2023/10/19 08:38:28;;;;;;;0.45;0.45;;;;;;;7.86;87.29;95771.88;5092985;28;20471;-72
2023/10/19 08:40:56;;;;;;;0.40;0.40;;;;;;;7.92;87.28;95781.59;5091109;28;20051;-72
2023/10/19 08:43:25;;;;;;;1.17;1.17;;;;;;;7.94;86.65;95773.41;5090543;28;20424;-72
2023/10/19 08:45:54;;;;;;;0.40;0.40;;;;;;;7.97;87.04;95771.13;5090493;28;20052;-73
2023/10/19 08:48:23;;;;;;;0.40;0.40;;;;;;;8.01;86.56;95768.81;5089854;28;20055;-73
2023/10/19 08:50:51;;;;;;;0.40;0.40;;;;;;;8.07;87.03;95760.78;5090227;28;20040;-73
2023/10/19 08:53:19;;;;;;;0.60;0.60;;;;;;;8.09;86.92;95763.22;5090466;28;20044;-72
2023/10/19 08:55:50;;;;;;;0.30;0.30;;;;;;;8.12;86.79;95757.44;5090892;28;20047;-72
2023/10/19 08:58:19;;;;;;;0.50;0.50;;;;;;;8.17;87.02;95764.75;5089746;28;20065;-73
2023/10/19 09:00:53;;;;;;;0.40;0.40;;;;;;;8.22;87.02;95756.88;5090121;28;20144;-73
2023/10/19 09:03:21;;;;;;;0.50;0.50;;;;;;;8.25;86.64;95762.59;5089919;28;20059;-73
2023/10/19 09:05:50;;;;;;;0.40;0.40;;;;;;;8.26;86.29;95752.75;5090475;28;20064;-73
2023/10/19 09:08:20;;;;;;;0.52;0.52;;;;;;;8.29;86.59;95758.44;5087199;28;20047;-73
2023/10/19 09:10:51;;;;;;;0.40;0.40;;;;;;;8.36;86.92;95758.38;5089227;28;20052;-73
2023/10/19 09:13:19;;;;;;;0.40;0.40;;;;;;;8.37;86.99;95758.16;5089689;28;20495;-73
2023/10/19 09:15:49;;;;;;;1.10;1.10;;;;;;;8.40;87.04;95741.75;5090273;28;20965;-73
2023/10/19 09:18:18;;;;;;;0.50;0.50;;;;;;;8.49;87.26;95757.38;5090571;28;20040;-73
2023/10/19 09:23:32;;;;;;;0.50;0.50;;;;;;;8.67;86.76;95744.00;5091400;28;20105;-73
2023/10/19 09:26:02;;;;;;;0.68;0.52;;;;;;;8.75;86.68;95730.38;5093371;28;20059;-73
2023/10/19 09:28:33;;;;;;;0.50;0.50;;;;;;;8.76;86.53;95732.81;5092292;28;20047;-73
2023/10/19 09:31:04;;;;;;;0.47;0.47;;;;;;;8.84;86.57;95734.31;5091086;28;20058;-73
2023/10/19 09:33:34;;;;;;;0.40;0.40;;;;;;;8.90;86.77;95725.44;5073079;28;20127;-73
2023/10/19 09:36:04;;;;;;;0.40;0.40;;;;;;;8.97;86.54;95736.75;5090133;28;20050;-73
2023/10/19 09:38:32;;;;;;;0.50;0.50;;;;;;;9.03;86.58;95735.03;5089768;28;20047;-73
2023/10/19 09:41:01;;;;;;;0.40;0.40;;;;;;;9.14;86.50;95735.03;5089984;28;20044;-73
2023/10/19 09:43:34;;;;;;;0.40;0.40;;;;;;;9.19;86.38;95737.81;5090136;28;20062;-73
2023/10/19 09:46:08;;;;;;;0.43;0.43;;;;;;;9.28;86.18;95730.28;5089684;28;20051;-73
2023/10/19 09:48:41;;;;;;;0.40;0.40;;;;;;;9.37;85.78;95731.53;5089064;28;20044;-73
2023/10/19 09:51:10;;;;;;;0.47;0.47;;;;;;;9.42;85.77;95721.03;5089552;28;20551;-73
2023/10/19 09:53:42;;;;;;;0.40;0.40;;;;;;;9.53;85.51;95724.72;5089732;28;20040;-73
2023/10/19 09:56:14;;;;;;;0.40;0.40;;;;;;;9.61;85.42;95728.84;5089033;28;20054;-73
2023/10/19 09:58:45;;;;;;;0.50;0.50;;;;;;;9.68;85.27;95729.53;5089603;28;20040;-73
2023/10/19 10:01:16;;;;;;;0.52;0.52;;;;;;;9.71;84.46;95726.41;5088738;28;20894;-73
2023/10/19 10:03:45;;;;;;;0.30;0.30;;;;;;;9.78;84.19;95730.56;5089376;28;20054;-73
2023/10/19 10:06:14;;;;;;;0.30;0.30;;;;;;;9.99;83.94;95731.75;5089831;28;20052;-73
2023/10/19 10:08:44;;;;;;;0.47;0.47;;;;;;;10.09;83.46;95734.63;5089640;28;20101;-73
2023/10/19 10:11:20;;;;;;;0.30;0.30;;;;;;;10.07;83.02;95727.94;5089257;28;20072;-73
2023/10/19 10:13:52;;;;;;;0.30;0.30;;;;;;;10.13;82.76;95729.63;5087610;28;20044;-73
2023/10/19 10:16:23;;;;;;;0.40;0.40;;;;;;;10.17;82.80;95722.78;5089538;28;20051;-72
2023/10/19 10:18:59;;;;;;;0.50;0.50;;;;;;;10.24;82.91;95718.16;5089024;28;20064;-73
2023/10/19 10:21:28;;;;;;;0.30;0.30;;;;;;;10.20;82.55;95709.00;5088820;28;20055;-73
2023/10/19 10:23:59;;;;;;;0.40;0.40;;;;;;;10.17;82.85;95702.28;5089953;28;20048;-73
2023/10/19 10:26:29;;;;;;;0.40;0.40;;;;;;;10.25;82.77;95693.09;5090315;28;20078;-72
2023/10/19 10:29:13;;;;;;;0.40;0.40;;;;;;;10.41;82.36;95702.19;5091286;28;20111;-73
2023/10/19 10:31:47;;;;;;;0.40;0.40;;;;;;;10.57;82.27;95701.41;5092703;28;20128;-73
2023/10/19 10:34:43;;;;;;;0.30;0.30;;;;;;;10.77;81.93;95707.06;5093309;28;20056;-73
2023/10/19 10:37:13;;;;;;;0.30;0.30;;;;;;;10.88;81.36;95705.38;5096537;28;20352;-73
2023/10/19 10:39:41;;;;;;;0.32;0.32;;;;;;;10.92;81.15;95707.28;5094156;28;20047;-73
2023/10/19 10:42:10;;;;;;;0.45;0.45;;;;;;;10.95;80.94;95706.00;5071701;28;20124;-73
2023/10/19 10:44:39;;;;;;;0.40;0.40;;;;;;;11.04;80.89;95702.69;5092989;28;20054;-74
2023/10/19 10:47:10;;;;;;;0.40;0.40;;;;;;;11.08;80.82;95695.00;5092041;28;20032;-74
2023/10/19 10:49:49;;;;;;;0.40;0.40;;;;;;;11.26;80.45;95696.59;5075334;28;20043;-74
2023/10/19 10:52:28;;;;;;;0.50;0.50;;;;;;;11.26;79.38;95692.06;5091316;28;20061;-74
2023/10/19 10:54:57;;;;;;;0.50;0.50;;;;;;;11.18;79.01;95689.81;5092679;28;20123;-72
2023/10/19 10:57:25;;;;;;;0.30;0.30;;;;;;;11.15;79.29;95700.16;5096116;28;20463;-74
2023/10/19 11:00:07;;;;;;;0.52;0.52;;;;;;;11.09;79.59;95695.81;5095773;28;20036;-74
2023/10/19 11:02:40;;;;;;;0.40;0.40;;;;;;;11.02;80.14;95704.78;5076049;28;20051;-72
2023/10/19 11:05:11;;;;;;;0.47;0.40;;;;;;;10.96;80.35;95702.28;5091892;28;20132;-72
2023/10/19 11:07:40;;;;;;;0.40;0.40;;;;;;;10.99;80.32;95693.81;5093872;28;20101;-73
2023/10/19 11:10:09;;;;;;;0.32;0.32;;;;;;;11.05;80.52;95700.81;5075670;28;20086;-73
2023/10/19 11:12:38;;;;;;;0.40;0.40;;;;;;;11.11;80.32;95699.06;5094154;28;20064;-72
2023/10/19 11:15:09;;;;;;;0.30;0.30;;;;;;;11.22;80.64;95698.94;5098170;28;20539;-73
2023/10/19 11:17:45;;;;;;;0.30;0.30;;;;;;;11.23;79.70;95689.88;5094036;28;20119;-73
2023/10/19 11:20:22;;;;;;;0.63;0.63;;;;;;;11.27;80.11;95692.88;5093166;28;20031;-73
2023/10/19 11:22:51;;;;;;;0.45;0.45;;;;;;;11.30;79.28;95698.53;5093165;28;20466;-72
2023/10/19 11:25:20;;;;;;;0.50;0.50;;;;;;;11.42;79.22;95690.38;5092277;28;20056;-72
2023/10/19 11:27:48;;;;;;;0.50;0.50;;;;;;;11.44;78.86;95690.97;5072743;28;20052;-72
2023/10/19 11:30:24;;;;;;;0.40;0.40;;;;;;;11.32;78.88;95666.22;5091554;28;20040;-72
2023/10/19 11:32:56;;;;;;;0.30;0.30;;;;;;;11.25;78.76;95670.94;5091913;28;20090;-72
2023/10/19 11:35:25;;;;;;;;;;;;;;;11.22;79.68;95688.25;5091822;28;20064;-72
2023/10/19 11:37:54;;;;;;;0.50;0.50;;;;;;;11.27;80.06;95691.00;5091558;28;20476;-72
2023/10/19 11:40:22;;;;;;;0.55;0.55;;;;;;;11.26;80.05;95684.03;5091302;28;20048;-72
2023/10/19 11:42:50;;;;;;;0.60;0.60;;;;;;;11.38;80.28;95674.06;5091596;28;20051;-72
2023/10/19 11:45:18;;;;;;;0.50;0.50;;;;;;;11.50;80.06;95667.81;5092126;28;20491;-72
2023/10/19 11:47:46;;;;;;;0.50;0.50;;;;;;;11.60;79.69;95673.28;5090780;28;20089;-73
2023/10/19 11:50:16;;;;;;;0.50;0.50;;;;;;;11.46;79.63;95678.16;5091734;28;20052;-73
2023/10/19 11:52:43;;;;;;;0.50;0.50;;;;;;;11.37;79.98;95659.09;5091350;28;20040;-72
2023/10/19 11:55:13;;;;;;;0.50;0.50;;;;;;;11.39;79.99;95656.19;5090933;28;20085;-72
2023/10/19 11:57:43;;;;;;;0.52;0.52;;;;;;;11.40;79.76;95645.25;5090227;28;20044;-72
2023/10/19 12:00:15;;;;;;;0.60;0.50;;;;;;;11.48;80.06;95653.88;5091654;28;20119;-72